WEATHER DATA

YESTERDAY
Time Temp. Dewp. Hum. Bar.
00:06 15.5 11.3 76 1025.2
00:17 15.4 11.2 76 1025.2
00:26 15.5 11.3 76 1025.2
00:36 15.5 11.3 76 1025.2
00:47 15.5 11.3 76 1025.2
00:57 15.4 11.2 76 1025.1
01:07 15.4 11.2 76 1025.1
01:16 15.4 11.2 76 1025.1
01:27 15.4 11.2 76 1025.1
01:37 15.3 11.1 76 1025.1
01:47 15.3 10.9 75 1025
01:58 15.3 10.9 75 1024.9
02:08 15.3 10.9 75 1024.9
02:17 15.2 10.6 74 1024.9
02:27 15.2 10.6 74 1025
02:38 15.1 10.5 74 1024.9
02:48 15.1 10.5 74 1024.9
02:58 15.1 10.5 74 1024.9
03:08 15 10.6 75 1024.9
03:18 15 10.6 75 1024.9
03:28 15 10.6 75 1024.8
03:38 15 10.6 75 1024.8
03:49 15 10.6 75 1024.7
03:59 15 10.6 75 1024.7
04:01 15 10.6 75 1024.7
04:12 15 10.6 75 1024.8
04:22 15 10.4 74 1024.8
04:32 15 10.4 74 1024.8
04:42 15 10.4 74 1024.7
04:52 15 10.4 74 1024.7
05:02 14.9 10.1 73 1024.6
05:12 14.9 9.9 72 1024.6
05:23 14.9 9.9 72 1024.6
05:38 14.9 9.9 72 1024.7
05:47 14.9 9.9 72 1024.7
05:58 14.9 9.9 72 1024.7
06:08 14.8 9.8 72 1024.8
06:18 14.8 9.8 72 1024.7
06:28 14.8 10 73 1024.8
06:38 14.8 10.2 74 1024.9
06:48 14.8 10.2 74 1025
06:58 14.8 10.2 74 1025
07:09 14.8 10.4 75 1025.1
07:19 14.8 10.2 74 1025.2
07:29 14.7 10.1 74 1025.3
07:39 14.7 10.1 74 1025.6
07:49 14.7 9.9 73 1025.6
07:59 14.7 9.9 73 1025.7
08:09 14.7 9.9 73 1025.9
08:19 15 10.2 73 1026.1
08:29 14.9 9.9 72 1026.2
08:39 15 10.2 73 1026.3
09:00 14.9 10.3 74 1026.4
09:15 14.9 10.3 74 1026.4
09:24 14.9 10.5 75 1026.4
09:35 15 10.6 75 1026.4
09:45 15 10.8 76 1026.4
09:55 15 10.8 76 1026.5
10:05 15 11 77 1026.5
10:15 15 11 77 1026.5
10:25 15.1 11.3 78 1026.6
10:35 15.1 11.3 78 1026.8
10:46 15.1 11.3 78 1026.9
10:56 15.2 11.4 78 1027
11:05 15.2 11.6 79 1026.9
11:16 15.5 12.1 80 1027
11:26 15.8 12 78 1027.1
11:36 15.7 11.9 78 1027
11:46 15.7 11.9 78 1027
11:57 15.7 11.7 77 1027
12:06 15.7 11.9 78 1026.9
12:16 15.7 11.5 76 1026.8
12:26 15.8 11.8 77 1026.7
12:42 15.9 11.9 77 1026.5
12:51 15.9 11.9 77 1026.4
13:01 16 12 77 1026.2
13:12 16 12 77 1026.1
13:22 16.1 12.1 77 1025.9
13:32 16.1 12.1 77 1025.8
13:42 16.2 12.2 77 1025.7
13:52 16.3 12.5 78 1025.6
14:02 16.4 12.4 77 1025.4
14:12 16.5 12.5 77 1025.4
14:23 16.5 12.3 76 1025.3
14:33 16.5 12.5 77 1025.3
14:43 16.5 12.3 76 1025.2
14:53 16.5 12.5 77 1025.1
15:03 16.5 12.5 77 1025
15:13 16.6 12.8 78 1024.9
15:23 16.7 12.7 77 1025
15:34 16.7 12.7 77 1025
15:43 16.8 12.7 77 1025
15:53 16.8 12.7 77 1024.9
16:09 16.9 12.8 77 1024.9
16:29 16.9 12.8 77 1025
16:39 16.9 12.8 77 1025
16:49 16.9 12.8 77 1025.1
16:59 16.9 12.8 77 1025.1
17:09 16.9 12.8 77 1025.1
17:20 16.9 13 78 1025.1
17:29 16.9 12.8 77 1025.1
17:39 16.8 12.7 77 1025.1
17:49 16.8 12.9 78 1025.1
18:00 16.8 13.1 79 1025.1
18:10 16.8 13.1 79 1025.2
18:20 16.8 13.1 79 1025.2
18:30 16.8 13.1 79 1025.3
18:40 16.7 13 79 1025.3
18:50 16.7 13 79 1025.4
19:11 16.6 13.1 80 1025.5
19:20 16.5 12.8 79 1025.4
19:35 16.5 13 80 1025.5
19:46 16.4 12.8 79 1025.5
19:56 16.4 12.8 79 1025.5
20:06 16.3 12.5 78 1025.6
20:16 16.3 12.5 78 1025.6
20:26 16.3 12.5 78 1025.7
20:36 16.2 12.2 77 1025.8
20:46 16.2 12.2 77 1025.7
20:57 16.1 12.1 77 1025.8
21:06 16.1 11.9 76 1025.9
21:16 16.1 11.9 76 1025.9
21:26 16 11.6 75 1025.9
21:37 16 11.6 75 1025.8
21:47 16 11.6 75 1025.7
21:56 16 11.4 74 1025.9
22:07 15.9 11.3 74 1025.9
22:17 15.9 11.3 74 1025.9
22:27 15.9 11.3 74 1026
22:37 15.8 11.2 74 1026
22:57 15.8 11.2 74 1026.1
23:18 15.7 11.1 74 1026.2
23:28 15.7 11.1 74 1026.2
23:37 15.7 11.1 74 1026.2
23:47 15.6 11 74 1026.3
23:58 15.6 11.2 75 1026.3

DAY STATISTIC

2020-01-26
TEMPERATURE
AVERAGE
15.7
HIGH
16.9
16:09
LOW
14.7
07:29
PRESSURE
AVERAGE
1025.5
HIGH
1027.1
11:26
LOW
1024.6
05:02
DEWPOINT
AVERAGE
11.4
HIGH
13.1
18:00
LOW
9.8
06:08
HUMIDITY
AVERAGE
76
HIGH
80
11:16
LOW
72
05:12
TEMPERATURE (°C)
LOW
14.7
HIGH
16.9
AVERAGE
15.7
PRESSURE (hpa)
LOW
1024.6
HIGH
1027.1
AVERAGE
1025.5
DEVICE